createdAt,value
2023-02-08T00:00:45.307Z,92.30
2023-02-08T00:02:50.236Z,92.00
2023-02-08T00:04:55.502Z,92.10
2023-02-08T00:07:00.735Z,92.00
2023-02-08T00:09:05.776Z,92.00
2023-02-08T00:11:13.266Z,92.30
2023-02-08T00:13:21.403Z,92.30
2023-02-08T00:15:26.643Z,92.20
2023-02-08T00:17:32.428Z,92.60
2023-02-08T00:19:37.307Z,92.40
2023-02-08T00:21:42.557Z,92.70
2023-02-08T00:23:48.282Z,92.90
2023-02-08T00:25:53.866Z,93.00
2023-02-08T00:27:59.176Z,92.70
2023-02-08T00:30:08.638Z,92.40
2023-02-08T00:32:13.563Z,92.60
2023-02-08T00:34:19.806Z,92.60
2023-02-08T00:36:25.657Z,92.80
2023-02-08T00:38:31.433Z,92.90
2023-02-08T00:40:37.323Z,92.90
2023-02-08T00:42:42.637Z,93.30
2023-02-08T00:44:48.684Z,92.90
2023-02-08T00:46:57.109Z,92.80
2023-02-08T00:49:02.021Z,93.10
2023-02-08T00:51:13.018Z,93.40
2023-02-08T00:53:18.698Z,93.50
2023-02-08T00:55:23.624Z,93.60
2023-02-08T00:57:29.205Z,93.40
2023-02-08T00:59:34.476Z,93.10
2023-02-08T01:01:40.203Z,92.80
2023-02-08T01:03:48.957Z,92.90
2023-02-08T01:05:54.480Z,93.20
2023-02-08T01:07:59.374Z,93.40
2023-02-08T01:10:04.290Z,93.60
2023-02-08T01:12:09.403Z,93.60
2023-02-08T01:14:14.704Z,94.00
2023-02-08T01:16:22.380Z,93.70
2023-02-08T01:18:27.677Z,93.90
2023-02-08T01:20:39.479Z,93.50
2023-02-08T01:22:44.543Z,93.40
2023-02-08T01:24:49.814Z,93.40
2023-02-08T01:26:54.774Z,93.90
2023-02-08T01:29:00.882Z,93.50
2023-02-08T01:31:10.548Z,93.50
2023-02-08T01:33:15.502Z,93.60
2023-02-08T01:35:21.574Z,93.70
2023-02-08T01:37:29.064Z,93.60
2023-02-08T01:39:35.092Z,93.40
2023-02-08T01:41:44.621Z,93.20
2023-02-08T01:44:07.660Z,93.20
2023-02-08T01:46:13.795Z,92.90
2023-02-08T01:48:25.696Z,93.40
2023-02-08T01:50:45.249Z,93.10
2023-02-08T01:52:54.332Z,93.50
2023-02-08T01:55:06.148Z,93.20
2023-02-08T01:57:12.670Z,92.90
2023-02-08T01:59:26.977Z,92.70
2023-02-08T02:01:34.690Z,92.40
2023-02-08T02:03:41.875Z,92.70
2023-02-08T02:05:52.431Z,92.70
2023-02-08T02:08:02.055Z,92.90
2023-02-08T02:10:14.980Z,92.60
2023-02-08T02:12:21.514Z,92.50
2023-02-08T02:14:29.661Z,92.40
2023-02-08T02:16:35.465Z,92.70
2023-02-08T02:18:41.982Z,92.70
2023-02-08T02:21:29.883Z,92.90
2023-02-08T02:24:20.408Z,93.00
2023-02-08T02:27:07.686Z,93.20
2023-02-08T02:29:54.954Z,93.20
2023-02-08T02:32:25.831Z,92.90
2023-02-08T02:34:39.920Z,93.20
2023-02-08T02:36:55.989Z,93.20
2023-02-08T02:39:13.947Z,93.30
2023-02-08T02:41:45.461Z,93.20
2023-02-08T02:44:00.063Z,93.10
2023-02-08T02:46:15.084Z,93.40
2023-02-08T02:48:31.972Z,93.70
2023-02-08T02:50:43.421Z,93.40
2023-02-08T02:52:58.179Z,93.30
2023-02-08T02:55:10.826Z,93.50
2023-02-08T02:57:20.745Z,93.50
2023-02-08T02:59:27.653Z,93.70
2023-02-08T03:01:33.255Z,93.50
2023-02-08T03:03:41.734Z,93.40
2023-02-08T03:05:47.439Z,93.20
2023-02-08T03:08:11.283Z,93.70
2023-02-08T03:10:31.705Z,93.40
2023-02-08T03:12:48.973Z,93.00
2023-02-08T03:15:02.062Z,93.00
2023-02-08T03:17:31.678Z,93.00
2023-02-08T03:19:48.212Z,93.10
2023-02-08T03:22:01.993Z,93.40
2023-02-08T03:24:23.459Z,93.80
2023-02-08T03:26:39.695Z,93.50
2023-02-08T03:28:58.650Z,93.40
2023-02-08T03:31:16.177Z,93.00
2023-02-08T03:33:28.642Z,92.80
2023-02-08T03:35:41.779Z,92.90
2023-02-08T03:37:53.069Z,92.80
2023-02-08T03:40:04.926Z,92.50
2023-02-08T03:42:18.057Z,92.30
2023-02-08T03:44:30.161Z,92.70
2023-02-08T03:46:39.794Z,92.90
2023-02-08T03:48:53.141Z,93.20
2023-02-08T03:51:04.302Z,93.30
2023-02-08T03:53:11.089Z,93.50
2023-02-08T03:55:21.325Z,93.10
2023-02-08T03:57:30.006Z,93.20
2023-02-08T03:59:41.220Z,92.90
2023-02-08T04:01:51.522Z,92.80
2023-02-08T04:03:58.780Z,93.00
2023-02-08T04:06:07.119Z,93.00
2023-02-08T04:08:12.669Z,92.10
2023-02-08T04:10:18.713Z,92.20
2023-02-08T04:12:24.293Z,92.40
2023-02-08T04:14:29.749Z,92.60
2023-02-08T04:16:34.906Z,92.60
2023-02-08T04:18:40.401Z,92.80
2023-02-08T04:20:45.732Z,93.10
2023-02-08T04:22:53.455Z,93.20
2023-02-08T04:24:58.733Z,93.00
2023-02-08T04:27:05.926Z,93.20
2023-02-08T04:29:11.243Z,92.60
2023-02-08T04:31:16.724Z,92.10
2023-02-08T04:33:21.983Z,92.40
2023-02-08T04:35:27.398Z,92.40
2023-02-08T04:37:32.722Z,92.30
2023-02-08T04:39:40.911Z,92.10
2023-02-08T04:41:46.384Z,91.90
2023-02-08T04:43:51.906Z,92.00
2023-02-08T04:45:57.117Z,92.20
2023-02-08T04:48:04.251Z,92.10
2023-02-08T04:50:10.146Z,92.20
2023-02-08T04:52:15.452Z,92.40
2023-02-08T04:54:21.056Z,92.50
2023-02-08T04:56:28.633Z,92.30
2023-02-08T04:58:34.398Z,92.40
2023-02-08T05:00:40.034Z,92.40
2023-02-08T05:02:45.856Z,92.40
2023-02-08T05:04:51.552Z,92.70
2023-02-08T05:06:56.622Z,92.50
2023-02-08T05:09:02.282Z,91.70
2023-02-08T05:11:08.942Z,92.10
2023-02-08T05:13:16.546Z,92.30
2023-02-08T05:15:22.068Z,92.30
2023-02-08T05:17:27.374Z,92.10
2023-02-08T05:19:33.046Z,91.80
2023-02-08T05:21:38.423Z,92.00
2023-02-08T05:23:46.442Z,92.20
2023-02-08T05:25:52.170Z,92.60
2023-02-08T05:27:57.874Z,93.10
2023-02-08T05:30:07.117Z,93.20
2023-02-08T05:32:13.153Z,93.20
2023-02-08T05:34:18.577Z,93.10
2023-02-08T05:36:24.771Z,93.10
2023-02-08T05:38:30.640Z,92.90
2023-02-08T05:40:36.761Z,92.80
2023-02-08T05:42:42.832Z,92.60
2023-02-08T05:44:48.080Z,92.40
2023-02-08T05:46:55.856Z,92.30
2023-02-08T05:49:01.223Z,92.10
2023-02-08T05:51:06.697Z,91.90
2023-02-08T05:53:12.201Z,92.20
2023-02-08T05:55:17.950Z,92.50
2023-02-08T05:57:23.585Z,92.80
2023-02-08T05:59:29.426Z,92.80
2023-02-08T06:01:35.415Z,92.40
2023-02-08T06:03:44.599Z,92.60
2023-02-08T06:05:50.517Z,92.60
2023-02-08T06:07:55.820Z,92.60
2023-02-08T06:10:00.854Z,92.20
2023-02-08T06:12:07.269Z,92.20
2023-02-08T06:14:13.726Z,92.30
2023-02-08T06:16:20.234Z,91.80
2023-02-08T06:18:26.010Z,92.10
2023-02-08T06:20:34.106Z,91.80
2023-02-08T06:22:39.676Z,92.00
2023-02-08T06:24:45.025Z,91.70
2023-02-08T06:26:50.051Z,91.60
2023-02-08T06:28:55.742Z,91.60
2023-02-08T06:31:00.954Z,91.90
2023-02-08T06:33:07.186Z,91.80
2023-02-08T06:35:12.814Z,91.40
2023-02-08T06:37:21.730Z,91.10
2023-02-08T06:39:27.105Z,91.30
2023-02-08T06:41:32.456Z,91.20
2023-02-08T06:43:37.822Z,91.50
2023-02-08T06:45:43.391Z,92.10
2023-02-08T06:47:49.301Z,92.20
2023-02-08T06:49:58.166Z,92.20
2023-02-08T06:52:03.121Z,92.50
2023-02-08T06:54:10.784Z,92.40
2023-02-08T06:56:15.690Z,92.50
2023-02-08T06:58:21.566Z,92.40
2023-02-08T07:00:26.969Z,92.30
2023-02-08T07:02:31.949Z,91.90
2023-02-08T07:04:37.005Z,91.90
2023-02-08T07:06:41.856Z,92.10
2023-02-08T07:08:46.943Z,92.20
2023-02-08T07:10:54.385Z,92.60
2023-02-08T07:12:59.252Z,92.50
2023-02-08T07:15:04.416Z,92.70
2023-02-08T07:17:11.109Z,92.90
2023-02-08T07:19:16.494Z,92.70
2023-02-08T07:23:29.127Z,92.40
2023-02-08T07:25:34.751Z,92.50
2023-02-08T07:27:42.252Z,92.40
2023-02-08T07:29:47.121Z,92.40
2023-02-08T07:31:52.579Z,92.60
2023-02-08T07:33:57.435Z,92.20
2023-02-08T07:36:05.299Z,92.30
2023-02-08T07:38:10.684Z,92.30
2023-02-08T07:40:16.496Z,92.50
2023-02-08T07:42:21.827Z,92.60
2023-02-08T07:44:44.752Z,92.10
2023-02-08T07:46:49.684Z,92.10
2023-02-08T07:48:55.413Z,92.40
2023-02-08T07:51:00.282Z,92.70
2023-02-08T07:53:05.392Z,92.50
2023-02-08T07:55:12.186Z,92.10
2023-02-08T07:57:21.224Z,91.90
2023-02-08T07:59:27.269Z,91.90
2023-02-08T08:01:34.734Z,92.30
2023-02-08T08:03:41.837Z,92.20
2023-02-08T08:05:47.191Z,92.40
2023-02-08T08:07:52.597Z,92.10
2023-02-08T08:09:58.873Z,91.70
2023-02-08T08:12:05.754Z,91.90
2023-02-08T08:14:10.643Z,92.00
2023-02-08T08:16:16.645Z,91.60
2023-02-08T08:18:24.282Z,91.90
2023-02-08T08:20:31.004Z,92.00
2023-02-08T08:22:36.004Z,92.10
2023-02-08T08:24:42.111Z,92.00
2023-02-08T08:26:48.109Z,92.30
2023-02-08T08:28:53.162Z,92.30
2023-02-08T08:30:58.503Z,92.30
2023-02-08T08:33:03.884Z,92.30
2023-02-08T08:35:12.431Z,92.40
2023-02-08T08:37:17.756Z,92.40
2023-02-08T08:39:22.617Z,92.30
2023-02-08T08:41:28.470Z,92.20
2023-02-08T08:43:33.336Z,92.20
2023-02-08T08:45:38.914Z,91.90
2023-02-08T08:47:43.804Z,91.80
2023-02-08T08:49:48.854Z,91.90
2023-02-08T08:51:56.363Z,91.90
2023-02-08T08:54:01.233Z,91.80
2023-02-08T08:56:07.922Z,91.80
2023-02-08T08:58:12.775Z,91.60
2023-02-08T09:00:19.359Z,91.30
2023-02-08T09:02:24.728Z,91.80
2023-02-08T09:04:29.854Z,91.50
2023-02-08T09:06:35.602Z,91.40
2023-02-08T09:08:44.259Z,91.20
2023-02-08T09:10:49.159Z,91.20
2023-02-08T09:12:55.321Z,91.00
2023-02-08T09:15:01.190Z,91.40
2023-02-08T09:17:06.075Z,91.20
2023-02-08T09:19:13.925Z,90.70
2023-02-08T09:21:21.939Z,90.50
2023-02-08T09:23:27.075Z,90.80
2023-02-08T09:25:35.285Z,90.90
2023-02-08T09:27:40.159Z,90.50
2023-02-08T09:29:45.455Z,90.30
2023-02-08T09:31:50.475Z,90.40
2023-02-08T09:34:00.809Z,90.00
2023-02-08T09:36:06.752Z,89.90
2023-02-08T09:38:12.057Z,89.50
2023-02-08T09:40:27.007Z,90.00
2023-02-08T09:42:41.636Z,89.60
2023-02-08T09:45:07.400Z,89.10
2023-02-08T09:47:21.561Z,88.40
2023-02-08T09:49:31.581Z,88.20
2023-02-08T09:51:41.444Z,88.50
2023-02-08T09:53:52.954Z,88.20
2023-02-08T09:56:02.229Z,88.40
2023-02-08T09:58:24.475Z,88.20
2023-02-08T10:00:37.550Z,87.40
2023-02-08T10:02:46.528Z,86.70
2023-02-08T10:05:03.525Z,86.90
2023-02-08T10:07:09.129Z,85.30
2023-02-08T10:09:17.445Z,85.60
2023-02-08T10:11:43.569Z,86.00
2023-02-08T10:14:16.456Z,86.00
2023-02-08T10:16:47.648Z,85.80
2023-02-08T10:19:03.015Z,84.30
2023-02-08T10:21:26.272Z,84.10
2023-02-08T10:23:51.841Z,81.50
2023-02-08T10:26:16.422Z,83.10
2023-02-08T10:28:40.543Z,82.50
2023-02-08T10:30:53.088Z,81.40
2023-02-08T10:33:04.957Z,79.90
2023-02-08T10:35:16.716Z,80.20
2023-02-08T10:37:24.655Z,78.40
2023-02-08T10:39:35.576Z,79.40
2023-02-08T10:41:41.074Z,76.00
2023-02-08T10:43:51.994Z,78.10
2023-02-08T10:46:11.324Z,77.60
2023-02-08T10:48:25.144Z,75.60
2023-02-08T10:50:36.845Z,76.20
2023-02-08T10:52:41.845Z,77.30
2023-02-08T10:54:48.385Z,79.60
2023-02-08T10:56:58.684Z,79.60
2023-02-08T10:59:10.413Z,75.50
2023-02-08T11:01:19.633Z,75.30
2023-02-08T11:03:28.982Z,75.70
2023-02-08T11:05:41.273Z,77.90
2023-02-08T11:07:46.698Z,75.50
2023-02-08T11:09:51.845Z,74.20
2023-02-08T11:11:58.943Z,73.50
2023-02-08T11:14:11.996Z,75.30
2023-02-08T11:16:27.710Z,74.50
2023-02-08T11:18:38.031Z,71.80
2023-02-08T11:20:44.215Z,70.80
2023-02-08T11:22:49.771Z,70.80
2023-02-08T11:25:00.820Z,69.90
2023-02-08T11:27:05.838Z,71.20
2023-02-08T11:29:18.878Z,69.50
2023-02-08T11:31:27.344Z,68.40
2023-02-08T11:33:33.273Z,68.40
2023-02-08T11:35:38.563Z,66.60
2023-02-08T11:37:51.176Z,67.90
2023-02-08T11:39:59.664Z,68.10
2023-02-08T11:42:06.724Z,65.40
2023-02-08T11:44:25.856Z,63.40
2023-02-08T11:46:39.544Z,65.10
2023-02-08T11:48:48.596Z,66.80
2023-02-08T11:51:00.506Z,66.20
2023-02-08T11:53:09.356Z,65.40
2023-02-08T11:55:27.126Z,63.60
2023-02-08T11:57:33.039Z,61.30
2023-02-08T11:59:37.985Z,65.70
2023-02-08T12:01:46.301Z,59.50
2023-02-08T12:03:55.639Z,63.00
2023-02-08T12:06:26.919Z,57.70
2023-02-08T12:08:42.121Z,49.10
2023-02-08T12:11:16.329Z,56.50
2023-02-08T12:13:47.203Z,57.20
2023-02-08T12:16:09.746Z,55.70
2023-02-08T12:18:40.864Z,49.80
2023-02-08T12:20:47.105Z,49.20
2023-02-08T12:23:06.607Z,46.80
2023-02-08T12:25:28.842Z,43.80
2023-02-08T12:27:46.565Z,43.40
2023-02-08T12:29:59.673Z,44.10
2023-02-08T12:37:39.917Z,42.70
2023-02-08T12:40:08.360Z,42.10
2023-02-08T12:42:33.543Z,42.20
2023-02-08T12:44:54.209Z,40.50
2023-02-08T12:47:11.966Z,40.40
2023-02-08T12:49:52.310Z,42.60
2023-02-08T12:52:08.331Z,39.60
2023-02-08T12:54:21.522Z,38.50
2023-02-08T12:56:32.827Z,42.00
2023-02-08T12:58:45.426Z,40.10
2023-02-08T13:00:53.226Z,40.70
2023-02-08T13:03:08.009Z,41.90
2023-02-08T13:05:22.850Z,42.20
2023-02-08T13:07:35.540Z,41.30
2023-02-08T13:09:49.344Z,39.70
2023-02-08T13:12:00.354Z,40.50
2023-02-08T13:14:12.241Z,41.20
2023-02-08T13:16:24.603Z,40.20
2023-02-08T13:18:34.960Z,38.60
2023-02-08T13:20:48.452Z,39.00
2023-02-08T13:22:55.770Z,39.10
2023-02-08T13:25:08.204Z,38.40
2023-02-08T13:27:20.064Z,37.40
2023-02-08T13:29:28.329Z,37.10
2023-02-08T13:31:41.430Z,37.00
2023-02-08T13:34:01.239Z,35.50
2023-02-08T13:36:23.521Z,36.60
2023-02-08T13:38:33.077Z,35.00
2023-02-08T13:40:41.357Z,34.80
2023-02-08T13:42:51.727Z,35.30
2023-02-08T13:45:00.106Z,34.90
2023-02-08T13:47:10.758Z,32.90
2023-02-08T13:49:56.736Z,32.10
2023-02-08T13:52:07.917Z,33.60
2023-02-08T13:54:15.772Z,32.80
2023-02-08T13:56:43.430Z,32.70
2023-02-08T13:59:06.474Z,31.40
2023-02-08T14:01:23.525Z,31.20
2023-02-08T14:03:31.549Z,30.50
2023-02-08T14:05:53.832Z,31.50
2023-02-08T14:08:05.119Z,30.80
2023-02-08T14:10:26.553Z,30.30
2023-02-08T14:12:43.660Z,30.80
2023-02-08T14:15:43.999Z,30.00
2023-02-08T14:17:54.945Z,29.40
2023-02-08T14:20:04.921Z,29.80
2023-02-08T14:22:20.251Z,31.30
2023-02-08T14:24:34.764Z,30.50
2023-02-08T14:26:40.314Z,30.00
2023-02-08T14:28:49.478Z,30.10
2023-02-08T14:30:58.024Z,29.80
2023-02-08T14:33:20.247Z,28.20
2023-02-08T14:35:29.347Z,29.70
2023-02-08T14:37:36.830Z,28.80
2023-02-08T14:39:44.396Z,29.80
2023-02-08T14:42:00.350Z,29.30
2023-02-08T14:45:04.697Z,29.70
2023-02-08T14:47:17.514Z,29.90
2023-02-08T14:49:22.689Z,29.10
2023-02-08T14:51:35.487Z,29.60
2023-02-08T14:53:48.613Z,30.00
2023-02-08T14:55:57.409Z,29.90
2023-02-08T14:58:04.013Z,29.60
2023-02-08T15:00:25.472Z,30.60
2023-02-08T15:02:33.334Z,30.70
2023-02-08T15:04:46.792Z,31.10
2023-02-08T15:07:33.553Z,30.40
2023-02-08T15:09:43.154Z,31.50
2023-02-08T15:12:01.640Z,30.90
2023-02-08T15:14:07.859Z,31.20
2023-02-08T15:16:17.090Z,31.40
2023-02-08T15:18:25.841Z,30.60
2023-02-08T15:20:33.796Z,31.00
2023-02-08T15:22:41.246Z,30.50
2023-02-08T15:24:53.756Z,31.20
2023-02-08T15:27:00.172Z,31.30
2023-02-08T15:29:05.909Z,31.70
2023-02-08T15:31:18.510Z,30.60
2023-02-08T15:33:24.805Z,31.50
2023-02-08T15:35:31.697Z,31.60
2023-02-08T15:37:37.828Z,32.60
2023-02-08T15:39:42.996Z,32.20
2023-02-08T15:41:51.799Z,32.30
2023-02-08T15:44:06.437Z,33.00
2023-02-08T15:46:25.096Z,32.10
2023-02-08T15:48:30.944Z,32.70
2023-02-08T15:50:36.657Z,33.40
2023-02-08T15:52:41.766Z,34.10
2023-02-08T15:54:48.269Z,33.30
2023-02-08T15:56:58.597Z,33.40
2023-02-08T15:59:06.252Z,34.90
2023-02-08T16:01:20.761Z,36.20
2023-02-08T16:03:30.839Z,36.70
2023-02-08T16:05:36.544Z,37.30
2023-02-08T16:07:46.353Z,39.70
2023-02-08T16:09:51.436Z,40.80
2023-02-08T16:12:01.250Z,41.30
2023-02-08T16:14:08.770Z,45.00
2023-02-08T16:16:25.873Z,45.10
2023-02-08T16:18:45.975Z,45.00
2023-02-08T16:21:00.772Z,45.70
2023-02-08T16:23:25.104Z,46.10
2023-02-08T16:25:46.432Z,47.50
2023-02-08T16:27:51.642Z,49.00
2023-02-08T16:29:57.626Z,50.60
2023-02-08T16:32:13.319Z,53.20
2023-02-08T16:34:23.221Z,54.60
2023-02-08T16:36:34.839Z,54.50
2023-02-08T16:38:40.004Z,54.30
2023-02-08T16:40:54.007Z,54.90
2023-02-08T16:43:19.683Z,54.30
2023-02-08T16:45:24.899Z,54.80
2023-02-08T16:47:37.769Z,54.10
2023-02-08T16:49:45.530Z,54.10
2023-02-08T16:51:53.469Z,54.40
2023-02-08T16:54:06.986Z,55.30
2023-02-08T16:56:13.358Z,58.50
2023-02-08T16:58:18.632Z,60.40
2023-02-08T17:00:28.363Z,61.90
2023-02-08T17:02:33.264Z,64.40
2023-02-08T17:04:38.185Z,64.90
2023-02-08T17:06:48.741Z,65.30
2023-02-08T17:08:53.692Z,66.30
2023-02-08T17:10:59.307Z,67.60
2023-02-08T17:13:19.735Z,67.30
2023-02-08T17:15:25.532Z,66.70
2023-02-08T17:17:30.519Z,67.70
2023-02-08T17:19:35.535Z,68.40
2023-02-08T17:21:40.705Z,69.00
2023-02-08T17:23:49.153Z,69.20
2023-02-08T17:25:54.868Z,70.30
2023-02-08T17:28:03.090Z,70.40
2023-02-08T17:30:09.425Z,70.70
2023-02-08T17:32:15.218Z,70.80
2023-02-08T17:34:20.161Z,71.60
2023-02-08T17:36:25.219Z,72.80
2023-02-08T17:38:31.232Z,72.50
2023-02-08T17:40:40.333Z,71.40
2023-02-08T17:42:47.630Z,72.80
2023-02-08T17:44:52.663Z,73.80
2023-02-08T17:46:58.282Z,73.70
2023-02-08T17:49:04.579Z,74.90
2023-02-08T17:51:16.115Z,75.40
2023-02-08T17:53:21.889Z,75.50
2023-02-08T17:55:26.994Z,75.30
2023-02-08T17:57:37.001Z,75.20
2023-02-08T17:59:43.471Z,75.90
2023-02-08T18:01:48.702Z,75.70
2023-02-08T18:03:55.192Z,77.60
2023-02-08T18:06:02.383Z,77.70
2023-02-08T18:08:07.890Z,77.60
2023-02-08T18:10:15.189Z,76.60
2023-02-08T18:12:20.128Z,77.00
2023-02-08T18:14:28.482Z,77.40
2023-02-08T18:16:35.592Z,77.80
2023-02-08T18:18:41.568Z,77.80
2023-02-08T18:20:47.089Z,78.30
2023-02-08T18:22:52.065Z,79.00
2023-02-08T18:24:57.176Z,79.90
2023-02-08T18:27:02.162Z,78.50
2023-02-08T18:29:07.532Z,80.40
2023-02-08T18:31:20.100Z,81.90
2023-02-08T18:33:25.205Z,81.30
2023-02-08T18:35:30.836Z,81.80
2023-02-08T18:37:36.339Z,81.80
2023-02-08T18:39:41.810Z,81.00
2023-02-08T18:41:47.338Z,81.30
2023-02-08T18:43:54.896Z,81.20
2023-02-08T18:46:05.619Z,81.60
2023-02-08T18:48:13.165Z,81.80
2023-02-08T18:50:18.451Z,82.40
2023-02-08T18:52:24.031Z,82.80
2023-02-08T18:54:29.485Z,83.60
2023-02-08T18:56:35.372Z,83.60
2023-02-08T18:58:40.404Z,84.40
2023-02-08T19:00:46.081Z,84.00
2023-02-08T19:02:51.053Z,84.40
2023-02-08T19:04:58.595Z,84.50
2023-02-08T19:07:04.073Z,84.40
2023-02-08T19:09:11.789Z,85.10
2023-02-08T19:11:19.737Z,85.50
2023-02-08T19:13:24.715Z,84.90
2023-02-08T19:15:30.274Z,85.30
2023-02-08T19:17:35.699Z,84.80
2023-02-08T19:19:41.047Z,85.40
2023-02-08T19:21:48.679Z,84.70
2023-02-08T19:23:58.153Z,85.30
2023-02-08T19:26:05.236Z,84.70
2023-02-08T19:28:11.090Z,84.80
2023-02-08T19:30:17.231Z,85.40
2023-02-08T19:32:22.194Z,84.40
2023-02-08T19:34:27.175Z,85.10
2023-02-08T19:36:36.127Z,84.90
2023-02-08T19:38:44.660Z,84.60
2023-02-08T19:40:55.950Z,85.20
2023-02-08T19:43:00.895Z,85.90
2023-02-08T19:45:06.625Z,85.40
2023-02-08T19:47:12.233Z,85.40
2023-02-08T19:49:17.867Z,85.40
2023-02-08T19:51:23.065Z,84.70
2023-02-08T19:53:29.657Z,85.50
2023-02-08T19:55:38.092Z,86.70
2023-02-08T19:57:43.796Z,87.00
2023-02-08T19:59:48.807Z,87.20
2023-02-08T20:01:55.864Z,87.10
2023-02-08T20:04:01.756Z,86.70
2023-02-08T20:06:08.116Z,86.90
2023-02-08T20:08:13.773Z,87.00
2023-02-08T20:10:19.095Z,87.20
2023-02-08T20:12:27.057Z,86.90
2023-02-08T20:14:34.905Z,87.00
2023-02-08T20:16:40.216Z,87.00
2023-02-08T20:18:45.427Z,87.20
2023-02-08T20:21:02.801Z,86.50
2023-02-08T20:23:20.871Z,88.00
2023-02-08T20:25:27.791Z,88.10
2023-02-08T20:27:35.300Z,87.50
2023-02-08T20:29:40.766Z,87.40
2023-02-08T20:31:48.608Z,87.30
2023-02-08T20:33:54.592Z,87.70
2023-02-08T20:35:59.519Z,87.60
2023-02-08T20:38:04.486Z,87.80
2023-02-08T20:40:12.536Z,87.50
2023-02-08T20:42:17.570Z,88.10
2023-02-08T20:44:25.064Z,88.10
2023-02-08T20:46:34.339Z,87.90
2023-02-08T20:48:39.602Z,88.10
2023-02-08T20:50:44.818Z,88.30
2023-02-08T20:52:50.663Z,88.30
2023-02-08T20:54:55.615Z,87.50
2023-02-08T20:59:53.236Z,88.10
2023-02-08T21:01:58.828Z,87.30
2023-02-08T21:04:05.200Z,88.20
2023-02-08T21:06:15.947Z,88.80
2023-02-08T21:08:20.872Z,88.70
2023-02-08T21:10:26.045Z,88.10
2023-02-08T21:12:32.551Z,87.10
2023-02-08T21:14:38.316Z,87.20
2023-02-08T21:16:46.253Z,86.40
2023-02-08T21:18:51.221Z,85.80
2023-02-08T21:20:56.864Z,84.70
2023-02-08T21:23:02.407Z,85.00
2023-02-08T21:25:07.667Z,85.60
2023-02-08T21:27:13.008Z,85.60
2023-02-08T21:29:18.460Z,86.40
2023-02-08T21:31:24.434Z,85.90
2023-02-08T21:33:32.432Z,85.90
2023-02-08T21:35:38.865Z,85.90
2023-02-08T21:37:43.806Z,85.30
2023-02-08T21:39:48.718Z,85.20
2023-02-08T21:41:55.705Z,85.20
2023-02-08T21:44:03.796Z,85.20
2023-02-08T21:46:10.718Z,86.20
2023-02-08T21:48:17.001Z,85.30
2023-02-08T21:50:37.009Z,85.60
2023-02-08T21:52:54.421Z,85.50
2023-02-08T21:55:00.428Z,85.30
2023-02-08T21:57:07.985Z,84.90
2023-02-08T21:59:12.919Z,84.60
2023-02-08T22:01:17.918Z,84.20
2023-02-08T22:03:22.975Z,83.90
2023-02-08T22:05:30.951Z,83.70
2023-02-08T22:07:46.390Z,83.10
2023-02-08T22:09:51.555Z,83.20
2023-02-08T22:11:56.502Z,82.40
2023-02-08T22:14:01.985Z,82.30
2023-02-08T22:16:11.462Z,82.40
2023-02-08T22:18:16.482Z,82.10
2023-02-08T22:20:22.321Z,81.60
2023-02-08T22:22:29.824Z,82.10
2023-02-08T22:24:36.165Z,82.80
2023-02-08T22:26:41.752Z,83.10
2023-02-08T22:28:46.733Z,82.60
2023-02-08T22:30:52.128Z,82.80
2023-02-08T22:32:57.667Z,82.70
2023-02-08T22:35:02.620Z,83.10
2023-02-08T22:37:07.553Z,83.00
2023-02-08T22:39:15.877Z,82.80
2023-02-08T22:41:21.453Z,83.00
2023-02-08T22:43:27.033Z,83.20
2023-02-08T22:45:32.535Z,84.10
2023-02-08T22:47:38.191Z,83.60
2023-02-08T22:49:43.472Z,83.50
2023-02-08T22:51:48.977Z,84.20
2023-02-08T22:53:53.943Z,83.50
2023-02-08T22:56:01.476Z,84.00
2023-02-08T22:58:07.216Z,84.10
2023-02-08T23:00:16.944Z,82.90
2023-02-08T23:02:21.869Z,82.90
2023-02-08T23:04:27.841Z,83.20
2023-02-08T23:06:33.013Z,83.10
2023-02-08T23:08:38.564Z,81.80
2023-02-08T23:10:44.709Z,81.40
2023-02-08T23:12:52.354Z,80.40
2023-02-08T23:14:57.324Z,80.10
2023-02-08T23:17:03.110Z,79.10
2023-02-08T23:19:08.669Z,79.80
2023-02-08T23:21:18.087Z,79.40
2023-02-08T23:23:23.840Z,79.70
2023-02-08T23:25:28.752Z,80.70
2023-02-08T23:27:33.667Z,80.80
2023-02-08T23:29:42.151Z,81.00
2023-02-08T23:31:47.215Z,80.40
2023-02-08T23:33:52.407Z,81.70
2023-02-08T23:35:57.862Z,81.80
2023-02-08T23:38:03.470Z,82.50
2023-02-08T23:40:10.082Z,82.30
2023-02-08T23:42:25.489Z,83.20
2023-02-08T23:44:30.602Z,83.30
2023-02-08T23:46:38.210Z,83.50
2023-02-08T23:48:43.892Z,83.70
2023-02-08T23:50:48.798Z,84.20
2023-02-08T23:52:56.467Z,83.50
2023-02-08T23:55:01.993Z,84.30
2023-02-08T23:57:07.767Z,84.00
2023-02-08T23:59:14.016Z,83.90
